sim
Sign-in with your pilot id or email,
or register
Callsign
Passwort

Schedule Details

Flight Number: DLH2728
Departure: Munich Airport (EDDM) at 17:10
Arrival: Hamburg Airport (EDDH) at 18:30
Route: Lufthansa Passenger Schedule. Enter filed route here before submitting Pirep.

Weather Information
Getting current METAR information for EDDM 010320Z VRB01KT 0700 R08L/0500N R08R/0450D FG NSC 04/03 Q1010 BECMG 0500 BKN001
Getting current METAR information for EDDH 010320Z 12007KT CAVOK 10/09 Q1009 NOSIG

Schedule Frequency

Route Map